Terminal Aerodrome Forecast
Issued by NWS

Home | Current Version | Previous Version | Text Only | Print | Product List | Glossary On
Versions: 1 2 3 4 5 6 7 8 9 10 11 12 13 14 15
000
FTUS44 KOUN 192320
TAFCSM
TAF
KCSM 192320Z 2000/2024 12011KT P6SM SCT250
     FM201400 14017G27KT P6SM BKN120=

USA.gov is the U.S. government's official web portal to all federal, state and local government web resources and services.